Time;durP1;ratioP1;P1;durP2;ratioP2;P2;SDS_P1;SDS_P2;PMS_P1;PMS_P2;Temp;Humidity;BMP_temperature;BMP_pressure;BME280_temperature;BME280_humidity;BME280_pressure;Samples;Min_cycle;Max_cycle;Signal;HPM_P1;HPM_P2
2023/09/21 13:32:37;;;;;;;3.20;1.70;;;;;;;26.18;47.87;97899.17;102325;1291;600209;-27
2023/09/21 13:35:05;;;;;;;3.00;1.60;;;;;;;26.06;48.92;97891.64;104298;1275;62297;-31
2023/09/21 13:37:34;;;;;;;7.90;1.90;;;;;;;25.91;48.78;97892.44;104540;1272;61803;-31
2023/09/21 13:40:03;;;;;;;3.90;2.00;;;;;;;25.75;49.08;97891.81;104545;1267;72334;-31
2023/09/21 13:42:33;;;;;;;6.50;2.10;;;;;;;25.63;49.77;97886.79;104459;1273;65317;-30
2023/09/21 13:45:01;;;;;;;5.00;1.80;;;;;;;25.52;50.36;97883.34;108515;1267;75003;-43
2023/09/21 13:47:29;;;;;;;7.40;1.90;;;;;;;25.43;51.01;97885.73;104524;1279;208388;-41
2023/09/21 13:49:58;;;;;;;4.60;2.10;;;;;;;25.37;51.81;97883.20;104932;1264;61968;-38
2023/09/21 13:52:26;;;;;;;9.20;1.80;;;;;;;25.31;52.15;97876.77;104680;1269;73215;-41
2023/09/21 13:54:56;;;;;;;7.70;2.00;;;;;;;25.27;52.80;97876.23;105025;1274;65330;-43
2023/09/21 13:57:44;;;;;;;8.90;2.00;;;;;;;25.21;53.34;97874.27;104678;1269;76517;-44
2023/09/21 14:00:14;;;;;;;3.90;1.90;;;;;;;25.16;53.80;97865.23;104759;1272;61139;-40
2023/09/21 14:02:48;;;;;;;4.30;2.20;;;;;;;25.11;54.19;97872.52;104649;1272;59679;-37
2023/09/21 14:05:21;;;;;;;8.50;2.10;;;;;;;25.06;54.71;97869.38;104765;1264;75365;-38
2023/09/21 14:07:50;;;;;;;3.90;1.80;;;;;;;25.01;55.24;97867.33;104820;1263;65577;-38
2023/09/21 14:10:19;;;;;;;3.80;1.90;;;;;;;24.97;55.59;97865.75;104711;1271;75502;-39
2023/09/21 14:12:49;;;;;;;7.90;2.20;;;;;;;24.93;56.12;97868.16;104642;1271;61177;-37
2023/09/21 14:15:17;;;;;;;6.40;2.20;;;;;;;24.90;56.60;97870.11;104787;1269;62400;-44
2023/09/21 14:17:45;;;;;;;7.30;2.30;;;;;;;24.87;57.03;97865.79;104817;1269;75205;-40
2023/09/21 14:20:14;;;;;;;4.30;1.90;;;;;;;24.84;57.25;97864.77;104773;1269;67312;-46
2023/09/21 14:22:42;;;;;;;9.70;2.30;;;;;;;24.82;57.58;97865.15;104721;1269;75316;-42
2023/09/21 14:25:10;;;;;;;4.70;2.40;;;;;;;24.81;57.85;97861.95;104661;1275;62257;-38
2023/09/21 14:27:38;;;;;;;6.20;2.10;;;;;;;24.79;57.11;97862.02;104736;1270;62208;-39
2023/09/21 14:30:07;;;;;;;8.90;2.20;;;;;;;24.78;56.13;97863.64;104659;1276;75090;-42
2023/09/21 14:32:35;;;;;;;5.60;1.90;;;;;;;24.76;55.30;97861.90;105260;1267;67308;-42
2023/09/21 14:35:03;;;;;;;7.90;2.00;;;;;;;24.74;54.86;97862.52;104990;1266;74937;-41
2023/09/21 14:37:31;;;;;;;3.90;2.10;;;;;;;24.71;54.45;97861.86;104929;1264;61368;-41
2023/09/21 14:40:01;;;;;;;3.50;2.40;;;;;;;24.69;53.88;97863.20;104912;1267;62706;-43
2023/09/21 14:42:29;;;;;;;4.00;2.10;;;;;;;24.66;53.82;97859.67;105039;1266;72567;-40
2023/09/21 14:44:57;;;;;;;4.40;2.00;;;;;;;24.64;53.66;97859.25;105179;1266;64155;-41
2023/09/21 14:47:30;;;;;;;5.10;2.20;;;;;;;24.61;53.51;97856.67;104996;1265;74823;-41
2023/09/21 14:49:59;;;;;;;5.00;2.10;;;;;;;24.58;53.32;97848.92;105025;1269;62268;-41
2023/09/21 14:52:27;;;;;;;4.90;2.10;;;;;;;24.56;53.17;97847.81;104962;1267;59544;-42
2023/09/21 14:54:55;;;;;;;3.00;2.00;;;;;;;24.53;53.23;97839.98;105057;1266;73186;-41
2023/09/21 14:57:24;;;;;;;4.30;1.70;;;;;;;24.51;53.26;97837.70;105009;1266;67814;-41
2023/09/21 14:59:52;;;;;;;3.70;1.90;;;;;;;24.48;53.13;97832.29;105135;1275;74780;-41
2023/09/21 15:02:20;;;;;;;1.80;1.50;;;;;;;24.45;52.77;97836.59;104998;1273;61223;-42
2023/09/21 15:04:48;;;;;;;2.50;1.70;;;;;;;24.43;52.96;97831.49;105049;1269;62495;-41
2023/09/21 15:07:17;;;;;;;3.90;1.60;;;;;;;24.42;52.87;97833.52;105099;1261;74154;-40
2023/09/21 15:09:45;;;;;;;3.50;1.90;;;;;;;24.39;53.05;97833.20;104934;1266;68658;-41
2023/09/21 15:12:15;;;;;;;5.00;2.00;;;;;;;24.37;52.91;97829.83;105098;1266;72866;-41
2023/09/21 15:14:44;;;;;;;3.30;1.70;;;;;;;24.36;52.72;97840.45;105042;1267;61194;-41
2023/09/21 15:17:12;;;;;;;2.80;1.60;;;;;;;24.32;52.64;97830.82;105133;1266;60649;-41
2023/09/21 15:19:40;;;;;;;3.10;1.80;;;;;;;24.31;52.71;97836.52;104858;1267;71889;-43
2023/09/21 15:22:08;;;;;;;2.40;1.80;;;;;;;24.29;52.60;97836.19;105026;1267;67299;-40
2023/09/21 15:24:36;;;;;;;3.70;2.00;;;;;;;24.27;52.65;97835.24;105175;1264;75068;-41
2023/09/21 15:27:04;;;;;;;2.40;1.70;;;;;;;24.25;52.49;97835.31;104905;1266;60131;-40
2023/09/21 15:29:32;;;;;;;3.10;1.70;;;;;;;24.23;52.53;97831.01;105041;1262;60211;-41
2023/09/21 15:32:00;;;;;;;5.40;2.10;;;;;;;24.22;52.37;97833.72;104935;1268;73506;-42
2023/09/21 15:34:28;;;;;;;1.80;1.60;;;;;;;24.20;52.45;97835.75;104936;1266;64429;-41
2023/09/21 15:36:56;;;;;;;2.40;1.70;;;;;;;24.18;52.76;97832.30;105018;1276;75029;-42
2023/09/21 15:39:24;;;;;;;2.00;1.70;;;;;;;24.17;52.59;97831.83;104992;1265;61198;-42
2023/09/21 15:41:54;;;;;;;5.50;1.90;;;;;;;24.15;52.55;97831.11;105130;1264;60128;-42
2023/09/21 15:44:23;;;;;;;2.20;1.80;;;;;;;24.13;52.71;97831.57;104890;1264;73419;-43
2023/09/21 15:46:51;;;;;;;2.10;1.50;;;;;;;24.11;52.75;97831.25;105008;1267;66463;-41
2023/09/21 15:49:19;;;;;;;2.30;1.80;;;;;;;24.09;52.66;97831.00;105169;1264;72771;-42
2023/09/21 15:51:48;;;;;;;2.30;1.80;;;;;;;24.08;52.71;97833.96;104932;1266;59704;-41
2023/09/21 15:54:16;;;;;;;3.10;1.70;;;;;;;24.06;52.60;97832.21;104943;1267;59644;-42
2023/09/21 15:56:47;;;;;;;4.60;1.80;;;;;;;24.05;52.69;97832.58;105061;1266;75092;-42
2023/09/21 15:59:14;;;;;;;4.00;1.80;;;;;;;24.03;52.87;97828.83;105125;1266;65246;-41
2023/09/21 16:01:42;;;;;;;3.70;1.90;;;;;;;24.01;52.84;97827.33;105090;1267;72411;-41
2023/09/21 16:04:10;;;;;;;2.10;1.60;;;;;;;23.99;52.80;97824.03;104920;1264;59631;-41
2023/09/21 16:06:39;;;;;;;2.30;1.60;;;;;;;23.97;52.78;97826.52;105062;1264;60199;-41
2023/09/21 16:09:06;;;;;;;2.10;1.70;;;;;;;23.96;52.91;97827.92;105007;1265;75366;-41
2023/09/21 16:11:39;;;;;;;3.00;1.70;;;;;;;23.96;53.00;97826.27;104961;1264;65378;-42
2023/09/21 16:14:07;;;;;;;2.60;1.70;;;;;;;23.94;53.11;97824.69;105023;1267;75074;-43
2023/09/21 16:16:34;;;;;;;2.80;1.90;;;;;;;23.93;53.13;97823.52;104928;1267;60193;-42
2023/09/21 16:19:02;;;;;;;3.30;1.80;;;;;;;23.91;53.17;97823.91;104938;1269;60195;-41
2023/09/21 16:21:32;;;;;;;1.70;1.40;;;;;;;23.90;53.11;97828.81;105063;1264;73121;-42
2023/09/21 16:24:00;;;;;;;2.40;1.60;;;;;;;23.89;53.27;97825.38;105069;1263;65322;-41
2023/09/21 16:26:28;;;;;;;1.70;1.60;;;;;;;23.87;53.30;97822.55;104850;1267;72845;-41
2023/09/21 16:28:56;;;;;;;4.70;1.70;;;;;;;23.86;53.33;97823.16;105044;1264;61290;-42
2023/09/21 16:31:25;;;;;;;1.90;1.60;;;;;;;23.84;53.10;97823.46;105088;1266;60113;-42
2023/09/21 16:33:54;;;;;;;1.80;1.60;;;;;;;23.83;53.49;97823.61;104965;1266;75822;-41
2023/09/21 16:36:22;;;;;;;2.70;1.70;;;;;;;23.82;53.37;97825.16;104896;1266;67423;-41
2023/09/21 16:38:50;;;;;;;2.30;1.60;;;;;;;23.80;53.66;97823.29;105023;1267;71892;-42
2023/09/21 16:41:18;;;;;;;2.50;1.50;;;;;;;23.79;53.62;97825.93;105004;1267;61149;-42
2023/09/21 16:43:46;;;;;;;1.60;1.50;;;;;;;23.78;53.53;97826.33;105048;1267;61024;-42
2023/09/21 16:46:14;;;;;;;2.50;1.60;;;;;;;23.77;53.47;97827.71;104880;1261;74151;-42
2023/09/21 16:49:02;;;;;;;3.00;1.90;;;;;;;23.75;53.57;97828.80;104943;1266;66496;-41
2023/09/21 16:51:30;;;;;;;4.40;1.70;;;;;;;23.75;53.64;97833.02;104976;1266;71902;-40
2023/09/21 16:53:58;;;;;;;3.30;1.60;;;;;;;23.73;53.83;97832.37;105178;1266;61045;-41
2023/09/21 16:56:26;;;;;;;3.50;1.50;;;;;;;23.72;53.61;97834.63;105061;1261;60103;-41
2023/09/21 16:58:54;;;;;;;5.50;1.60;;;;;;;23.71;53.99;97835.95;104953;1261;75205;-41
2023/09/21 17:01:21;;;;;;;3.00;1.70;;;;;;;23.69;53.82;97833.20;105046;1266;66667;-41
2023/09/21 17:03:49;;;;;;;3.70;1.80;;;;;;;23.68;53.98;97834.91;104979;1267;72882;-41
2023/09/21 17:06:17;;;;;;;2.30;1.60;;;;;;;23.67;53.75;97837.57;104984;1267;62451;-42
2023/09/21 17:08:47;;;;;;;4.00;1.90;;;;;;;23.66;54.09;97837.09;104964;1264;62679;-44
2023/09/21 17:11:15;;;;;;;4.40;1.70;;;;;;;23.65;54.05;97839.34;104970;1267;75231;-41
2023/09/21 17:13:43;;;;;;;2.70;1.90;;;;;;;23.63;53.95;97838.55;105129;1267;68394;-41
2023/09/21 17:16:14;;;;;;;2.90;1.70;;;;;;;23.63;54.00;97837.61;105014;1264;74858;-43
2023/09/21 17:18:42;;;;;;;3.20;1.90;;;;;;;23.62;53.90;97839.95;104915;1262;61557;-42
2023/09/21 17:21:10;;;;;;;5.30;1.90;;;;;;;23.61;54.02;97844.79;104927;1267;62243;-41
2023/09/21 17:23:38;;;;;;;2.30;1.80;;;;;;;23.60;53.94;97846.50;105030;1264;75221;-42
2023/09/21 17:26:06;;;;;;;3.70;2.00;;;;;;;23.60;54.03;97851.17;104938;1263;65472;-42
2023/09/21 17:28:34;;;;;;;2.30;1.60;;;;;;;23.58;53.95;97852.71;105136;1266;75055;-42
2023/09/21 17:31:03;;;;;;;2.50;1.70;;;;;;;23.57;53.85;97849.27;105178;1266;60329;-41
2023/09/21 17:33:32;;;;;;;3.30;1.90;;;;;;;23.56;53.91;97851.38;105188;1264;59898;-41
2023/09/21 17:36:00;;;;;;;2.90;1.90;;;;;;;23.55;53.96;97856.22;105178;1261;74242;-41
2023/09/21 17:38:28;;;;;;;2.60;1.90;;;;;;;23.54;54.11;97862.23;104977;1263;67560;-41
2023/09/21 17:40:56;;;;;;;3.10;1.80;;;;;;;23.53;54.06;97864.16;104936;1266;73837;-42
2023/09/21 17:43:24;;;;;;;2.90;1.70;;;;;;;23.52;54.04;97859.15;105105;1266;61128;-41
2023/09/21 17:45:52;;;;;;;2.50;1.70;;;;;;;23.52;53.99;97858.99;104948;1261;61143;-42
2023/09/21 17:48:20;;;;;;;3.40;2.10;;;;;;;23.51;54.17;97856.48;104909;1267;76176;-41
2023/09/21 17:50:57;;;;;;;2.50;2.00;;;;;;;23.50;53.92;97857.11;104899;1261;65349;-42
2023/09/21 17:53:28;;;;;;;3.00;2.10;;;;;;;23.49;54.02;97856.77;105005;1264;74722;-42
2023/09/21 17:55:56;;;;;;;2.80;2.10;;;;;;;23.48;54.07;97858.34;104824;1263;62803;-41
2023/09/21 17:58:24;;;;;;;3.10;2.30;;;;;;;23.47;54.11;97856.92;104987;1261;60957;-42
2023/09/21 18:00:52;;;;;;;3.40;2.10;;;;;;;23.47;54.19;97858.64;105053;1263;75007;-41
2023/09/21 18:03:20;;;;;;;2.40;2.00;;;;;;;23.46;54.23;97854.81;105253;1264;67487;-41
2023/09/21 18:05:49;;;;;;;3.90;2.20;;;;;;;23.45;54.22;97857.77;104824;1264;75098;-41
2023/09/21 18:08:16;;;;;;;3.70;2.00;;;;;;;23.45;54.16;97851.05;105266;1267;61193;-42
2023/09/21 18:10:44;;;;;;;3.70;2.40;;;;;;;23.44;54.20;97850.64;104900;1263;62156;-41
2023/09/21 18:13:12;;;;;;;3.10;2.10;;;;;;;23.43;53.84;97847.69;105365;1266;74974;-42
2023/09/21 18:15:41;;;;;;;4.10;2.30;;;;;;;23.43;53.99;97852.13;104941;1264;67753;-41
2023/09/21 18:18:09;;;;;;;2.60;2.00;;;;;;;23.42;54.07;97852.98;105449;1267;75084;-43
2023/09/21 18:20:37;;;;;;;3.40;2.20;;;;;;;23.41;53.92;97850.71;104871;1267;61235;-42
2023/09/21 18:23:08;;;;;;;2.60;2.30;;;;;;;23.41;53.91;97849.86;104838;1267;61545;-42
2023/09/21 18:25:36;;;;;;;3.20;2.00;;;;;;;23.40;53.71;97848.59;104811;1263;76060;-40
2023/09/21 18:28:04;;;;;;;2.60;2.20;;;;;;;23.39;54.07;97850.00;104789;1266;67310;-42
2023/09/21 18:30:32;;;;;;;3.60;2.60;;;;;;;23.39;53.87;97852.96;104856;1267;73813;-42
2023/09/21 18:33:00;;;;;;;4.30;2.30;;;;;;;23.38;53.93;97850.60;104944;1266;63515;-41
2023/09/21 18:35:28;;;;;;;2.90;2.30;;;;;;;23.36;53.93;97848.48;104928;1261;61796;-42
2023/09/21 18:37:57;;;;;;;2.80;2.10;;;;;;;23.36;53.97;97848.09;104936;1266;76005;-41
2023/09/21 18:40:25;;;;;;;3.70;2.20;;;;;;;23.36;53.86;97844.97;104958;1263;66347;-44
2023/09/21 18:42:53;;;;;;;4.70;2.30;;;;;;;23.35;53.97;97848.23;104903;1263;71930;-42
2023/09/21 18:45:21;;;;;;;4.00;2.50;;;;;;;23.33;53.86;97847.10;104922;1266;61269;-41
2023/09/21 18:48:24;;;;;;;4.30;2.50;;;;;;;23.33;54.04;97844.52;104892;1260;62121;-43
2023/09/21 18:50:52;;;;;;;3.90;2.30;;;;;;;23.32;53.85;97843.88;105014;1263;76676;-41
2023/09/21 18:53:20;;;;;;;2.80;2.40;;;;;;;23.31;53.99;97840.36;104891;1266;67342;-41
2023/09/21 18:55:48;;;;;;;5.40;2.50;;;;;;;23.30;53.71;97840.73;105031;1266;74999;-44
2023/09/21 18:58:16;;;;;;;4.00;2.30;;;;;;;23.29;53.92;97839.26;104882;1262;61197;-41
2023/09/21 19:00:44;;;;;;;3.90;2.40;;;;;;;23.29;53.97;97840.81;104995;1260;62146;-42
2023/09/21 19:03:12;;;;;;;5.40;2.60;;;;;;;23.29;53.75;97844.39;105487;1262;76582;-42
2023/09/21 19:05:40;;;;;;;4.80;2.60;;;;;;;23.28;53.67;97844.70;104858;1267;66280;-42
2023/09/21 19:08:09;;;;;;;4.70;2.70;;;;;;;23.27;53.86;97844.30;106238;1264;75026;-42
2023/09/21 19:10:36;;;;;;;3.90;2.80;;;;;;;23.27;53.78;97842.11;105108;1263;60552;-43
2023/09/21 19:13:04;;;;;;;3.90;2.40;;;;;;;23.26;53.86;97842.19;104864;1261;61282;-42
2023/09/21 19:15:32;;;;;;;4.00;2.80;;;;;;;23.25;53.77;97838.27;105061;1260;75803;-41
2023/09/21 19:18:01;;;;;;;3.70;2.60;;;;;;;23.25;53.83;97833.75;105017;1265;68803;-42
2023/09/21 19:20:35;;;;;;;3.50;2.70;;;;;;;23.25;53.73;97831.72;105065;1261;75487;-45
2023/09/21 19:23:16;;;;;;;4.00;2.70;;;;;;;23.24;53.81;97830.86;104973;1269;61198;-42
2023/09/21 19:25:47;;;;;;;3.40;2.60;;;;;;;23.23;53.97;97829.89;104991;1269;60514;-42
2023/09/21 19:28:15;;;;;;;4.30;2.90;;;;;;;23.22;53.81;97826.23;105349;1262;73941;-41
2023/09/21 19:30:50;;;;;;;3.70;3.00;;;;;;;23.22;53.90;97826.70;104987;1266;66599;-44
2023/09/21 19:33:37;;;;;;;3.40;2.60;;;;;;;23.21;53.87;97823.80;105157;1270;72740;-43
2023/09/21 19:36:12;;;;;;;3.50;2.80;;;;;;;23.21;53.78;97826.77;105026;1264;60620;-46
2023/09/21 19:38:41;;;;;;;3.90;2.80;;;;;;;23.20;53.80;97825.34;105038;1261;62120;-42
2023/09/21 19:41:10;;;;;;;5.30;2.80;;;;;;;23.19;53.67;97822.22;105010;1260;74091;-43
2023/09/21 19:43:42;;;;;;;4.00;2.70;;;;;;;23.19;53.88;97814.95;106059;1267;67699;-42
2023/09/21 19:46:10;;;;;;;3.90;2.70;;;;;;;23.19;53.69;97820.02;105188;1266;72749;-42
2023/09/21 19:52:10;;;;;;;3.10;2.60;;;;;;;23.17;53.64;97819.47;104789;1267;60608;-42
2023/09/21 19:54:38;;;;;;;4.30;2.60;;;;;;;23.17;53.57;97820.71;104758;1264;76082;-41
2023/09/21 19:57:06;;;;;;;3.60;3.00;;;;;;;23.15;53.74;97820.54;104854;1269;65336;-42
2023/09/21 19:59:36;;;;;;;4.40;2.80;;;;;;;23.15;53.80;97823.50;104963;1264;71523;-42
2023/09/21 20:02:04;;;;;;;4.10;2.90;;;;;;;23.15;53.72;97825.30;104914;1263;61091;-41
2023/09/21 20:04:32;;;;;;;3.30;2.80;;;;;;;23.14;53.87;97822.41;105043;1260;62347;-41
2023/09/21 20:07:00;;;;;;;4.20;3.10;;;;;;;23.13;53.84;97821.61;104876;1266;76209;-41
2023/09/21 20:09:29;;;;;;;3.40;2.90;;;;;;;23.13;53.78;97823.95;104949;1260;67529;-41
2023/09/21 20:11:57;;;;;;;3.90;2.90;;;;;;;23.12;53.77;97822.94;104910;1260;72798;-42
2023/09/21 20:14:25;;;;;;;3.20;2.80;;;;;;;23.12;53.83;97822.93;105114;1260;60450;-41
2023/09/21 20:16:55;;;;;;;6.10;3.20;;;;;;;23.11;53.86;97824.79;105246;1262;60386;-42
2023/09/21 20:19:23;;;;;;;4.50;3.00;;;;;;;23.10;53.77;97821.59;105475;1262;73894;-41
2023/09/21 20:21:53;;;;;;;5.60;3.40;;;;;;;23.10;53.79;97823.85;105324;1257;65332;-41
2023/09/21 20:24:21;;;;;;;3.00;2.60;;;;;;;23.10;53.71;97820.18;105264;1258;72772;-42
2023/09/21 20:26:49;;;;;;;4.30;2.90;;;;;;;23.09;53.78;97819.39;105115;1259;60450;-42
2023/09/21 20:29:17;;;;;;;4.50;3.00;;;;;;;23.08;53.88;97816.81;105235;1257;60463;-42
2023/09/21 20:31:45;;;;;;;5.50;2.90;;;;;;;23.07;53.63;97814.84;105212;1257;74991;-44
2023/09/21 20:34:13;;;;;;;3.20;2.90;;;;;;;23.07;53.83;97813.68;105247;1257;67710;-45
2023/09/21 20:36:41;;;;;;;3.90;3.10;;;;;;;23.06;53.81;97811.40;105270;1257;75370;-42
2023/09/21 20:39:09;;;;;;;3.40;2.90;;;;;;;23.06;53.88;97813.35;105204;1257;62487;-43
2023/09/21 20:41:37;;;;;;;5.10;3.10;;;;;;;23.05;53.85;97810.94;105319;1261;60548;-43
2023/09/21 20:44:05;;;;;;;3.70;3.20;;;;;;;23.05;53.67;97810.44;105439;1257;62234;-45
2023/09/21 20:46:33;;;;;;;4.50;3.30;;;;;;;23.04;53.95;97810.29;105273;1262;60498;-43
2023/09/21 20:49:01;;;;;;;4.20;2.90;;;;;;;23.03;53.91;97813.71;105150;1257;73524;-46
2023/09/21 20:51:29;;;;;;;3.80;3.00;;;;;;;23.03;54.03;97810.35;105276;1262;60514;-44
2023/09/21 20:53:57;;;;;;;4.50;3.30;;;;;;;23.02;53.77;97803.64;105260;1258;60623;-43
2023/09/21 20:56:25;;;;;;;4.30;3.30;;;;;;;23.02;53.86;97805.90;105118;1262;73961;-43
2023/09/21 20:58:53;;;;;;;3.40;3.00;;;;;;;23.01;53.78;97809.71;105222;1262;65311;-43
2023/09/21 21:01:22;;;;;;;3.60;2.80;;;;;;;23.01;53.80;97809.25;105335;1257;72732;-45
2023/09/21 21:03:53;;;;;;;5.30;3.40;;;;;;;23.01;53.94;97806.36;105175;1260;62033;-42
2023/09/21 21:06:21;;;;;;;4.50;3.20;;;;;;;23.00;53.87;97811.27;105218;1257;60820;-45
2023/09/21 21:08:52;;;;;;;5.20;3.60;;;;;;;22.99;53.74;97811.64;105508;1262;73966;-45
2023/09/21 21:11:20;;;;;;;5.90;3.70;;;;;;;22.99;53.84;97808.29;105349;1262;65340;-45
2023/09/21 21:13:48;;;;;;;4.10;3.40;;;;;;;22.99;53.88;97808.98;105324;1257;72802;-43
2023/09/21 21:16:16;;;;;;;5.00;3.60;;;;;;;22.98;53.89;97804.23;105389;1257;60446;-44
2023/09/21 21:18:44;;;;;;;4.30;3.30;;;;;;;22.98;53.86;97804.06;105282;1257;60604;-47
2023/09/21 21:21:11;;;;;;;6.90;3.70;;;;;;;22.97;53.98;97805.77;105192;1262;73932;-43
2023/09/21 21:23:39;;;;;;;6.00;3.70;;;;;;;22.96;53.87;97803.88;105306;1264;65334;-44
2023/09/21 21:26:12;;;;;;;6.00;3.80;;;;;;;22.96;53.88;97803.50;105223;1257;72775;-43
2023/09/21 21:28:43;;;;;;;4.20;3.30;;;;;;;22.95;53.92;97801.23;104931;1267;60410;-42
2023/09/21 21:31:11;;;;;;;4.60;3.50;;;;;;;22.95;53.95;97799.66;105203;1263;62543;-42
2023/09/21 21:33:39;;;;;;;5.80;3.40;;;;;;;22.94;54.08;97798.09;105195;1262;75986;-42
2023/09/21 21:36:07;;;;;;;5.50;3.70;;;;;;;22.94;53.94;97796.14;105191;1257;67173;-43
2023/09/21 21:38:35;;;;;;;4.60;3.70;;;;;;;22.93;53.95;97798.33;105182;1257;76359;-45
2023/09/21 21:41:03;;;;;;;4.40;3.60;;;;;;;22.94;54.09;97796.55;105305;1262;60679;-42
2023/09/21 21:43:31;;;;;;;5.80;3.90;;;;;;;22.93;53.94;97792.23;105041;1257;61184;-42
2023/09/21 21:45:59;;;;;;;4.40;3.50;;;;;;;22.93;53.91;97793.80;105025;1257;74133;-42
2023/09/21 21:48:28;;;;;;;4.30;3.50;;;;;;;22.92;54.08;97794.88;104742;1266;65338;-42
2023/09/21 21:50:55;;;;;;;4.60;3.90;;;;;;;22.92;54.04;97793.15;104872;1257;72755;-42
2023/09/21 21:53:24;;;;;;;5.20;3.60;;;;;;;22.91;54.08;97786.29;108976;1257;60153;-42
2023/09/21 21:55:51;;;;;;;4.90;4.00;;;;;;;22.92;54.06;97781.77;108986;1257;59294;-42
2023/09/21 21:58:19;;;;;;;5.20;3.90;;;;;;;22.92;54.13;97783.41;106671;1260;73955;-44
2023/09/21 22:00:47;;;;;;;4.70;3.80;;;;;;;22.92;53.90;97779.89;105173;1257;65364;-43
2023/09/21 22:23:36;;;;;;;6.20;4.00;;;;;;;22.87;53.98;97768.22;104835;1268;66721;-45
2023/09/21 22:26:08;;;;;;;4.60;4.00;;;;;;;22.86;54.08;97767.91;105097;1259;72770;-44
2023/09/21 22:28:44;;;;;;;5.80;4.00;;;;;;;22.86;54.16;97767.52;105233;1260;60517;-48
2023/09/21 22:31:39;;;;;;;5.00;3.70;;;;;;;22.85;54.04;97770.39;105132;1263;60358;-45
2023/09/21 22:34:08;;;;;;;4.90;3.90;;;;;;;22.85;54.12;97772.56;105281;1257;72664;-45
2023/09/21 22:36:36;;;;;;;7.00;4.10;;;;;;;22.84;53.92;97768.29;105411;1263;64142;-45
2023/09/21 22:39:07;;;;;;;5.10;4.20;;;;;;;22.83;54.12;97770.61;105313;1264;72779;-43
2023/09/21 22:41:35;;;;;;;4.20;3.80;;;;;;;22.83;54.10;97768.41;105173;1257;60444;-46
2023/09/21 22:44:05;;;;;;;4.70;4.00;;;;;;;22.83;54.02;97767.55;105137;1257;60498;-44
2023/09/21 22:46:33;;;;;;;4.90;3.90;;;;;;;22.82;54.06;97766.76;105256;1263;73940;-43
2023/09/21 22:49:01;;;;;;;5.80;4.20;;;;;;;22.82;53.99;97767.62;105283;1263;65381;-44
2023/09/21 22:51:29;;;;;;;5.70;4.00;;;;;;;22.82;54.15;97769.58;105389;1257;72752;-45
2023/09/21 22:53:57;;;;;;;4.90;4.10;;;;;;;22.81;54.08;97765.82;105188;1261;60520;-43
2023/09/21 22:56:25;;;;;;;5.40;3.90;;;;;;;22.81;54.19;97763.64;105270;1257;60510;-42
2023/09/21 22:58:53;;;;;;;6.00;3.90;;;;;;;22.81;54.14;97763.86;105197;1259;73932;-47
2023/09/21 23:01:21;;;;;;;5.40;4.30;;;;;;;22.80;54.07;97759.95;105129;1263;65935;-43
2023/09/21 23:03:49;;;;;;;5.70;4.20;;;;;;;22.80;54.03;97763.85;105312;1257;72785;-42
2023/09/21 23:06:18;;;;;;;4.50;3.90;;;;;;;22.80;54.22;97758.25;105398;1263;61128;-42
2023/09/21 23:08:46;;;;;;;5.20;4.00;;;;;;;22.80;53.98;97754.90;105470;1257;60578;-43
2023/09/21 23:11:15;;;;;;;5.40;4.10;;;;;;;22.79;54.19;97755.59;105405;1262;73941;-42
2023/09/21 23:13:46;;;;;;;4.40;3.90;;;;;;;22.79;54.09;97756.45;105393;1263;64942;-42
2023/09/21 23:16:14;;;;;;;4.60;4.00;;;;;;;22.78;54.23;97752.69;104989;1264;72808;-41
2023/09/21 23:18:42;;;;;;;5.20;4.10;;;;;;;22.77;53.98;97751.20;105454;1257;60467;-41
2023/09/21 23:21:10;;;;;;;6.60;4.10;;;;;;;22.77;53.97;97746.22;107840;1257;60562;-41
2023/09/21 23:23:38;;;;;;;4.60;3.70;;;;;;;22.77;54.14;97750.58;105364;1262;73956;-41
2023/09/21 23:26:07;;;;;;;8.90;4.30;;;;;;;22.77;54.13;97753.14;105366;1257;65328;-42
2023/09/21 23:28:35;;;;;;;5.40;4.00;;;;;;;22.76;54.19;97750.73;105389;1257;72824;-42
2023/09/21 23:31:07;;;;;;;4.70;3.90;;;;;;;22.77;54.13;97749.02;108959;1257;60178;-43
2023/09/21 23:33:39;;;;;;;4.70;4.00;;;;;;;22.76;54.09;97747.36;105709;1257;62261;-42
2023/09/21 23:36:10;;;;;;;6.00;4.30;;;;;;;22.76;53.99;97748.06;105317;1262;74404;-42
2023/09/21 23:38:42;;;;;;;4.40;3.90;;;;;;;22.76;54.05;97745.02;105364;1257;65367;-42
2023/09/21 23:41:10;;;;;;;4.60;4.00;;;;;;;22.76;54.07;97741.04;105311;1257;72911;-42
2023/09/21 23:43:41;;;;;;;5.30;3.90;;;;;;;22.76;54.16;97738.92;105451;1257;60581;-42
2023/09/21 23:46:10;;;;;;;4.80;4.10;;;;;;;22.76;54.07;97743.23;105502;1257;60515;-41
2023/09/21 23:48:39;;;;;;;4.30;3.90;;;;;;;22.76;53.96;97745.80;105522;1262;74019;-42
2023/09/21 23:51:07;;;;;;;5.90;4.30;;;;;;;22.75;53.91;97741.18;105303;1262;65805;-42
2023/09/21 23:53:35;;;;;;;4.50;3.80;;;;;;;22.74;54.13;97739.39;105737;1254;72762;-41
2023/09/21 23:56:03;;;;;;;4.80;3.80;;;;;;;22.75;54.21;97739.17;105728;1258;60441;-42
2023/09/21 23:58:31;;;;;;;5.00;3.80;;;;;;;22.74;54.31;97735.25;105756;1254;60469;-42
